New Holland, South Dakota
Current Conditions -  °F | °C
As of 4:27 PM on Friday 24 Oct 2014 (Local Time) from KMHE Reporting Station
Haze Haze  
Wind Chill: 78°   Ceiling: Unl
Heat Index: 78°   Visibility: 1.7mi
Dew Point: 37°   Wind: 5mph
Humidity: 23%   Direction: 270°W
Pressure: 29.91"   Gusts: NA
Location:  43.43°N, 98.61°W
Report Text: KMHE 242127Z AUTO 27004KT 1 3/4SM HZ CLR 26/03 A2991 RMK AO2 T02560028
Loading
Personal Weather Stations






























Interactive Weather Map
Tropical Storm Tracking
New forecast layout! Learn more

10-Day Weather Forecast

Advertisements
Track Severe Weather on mobile